Time;durP1;ratioP1;P1;durP2;ratioP2;P2;SDS_P1;SDS_P2;PMS_P1;PMS_P2;Temp;Humidity;BMP_temperature;BMP_pressure;BME280_temperature;BME280_humidity;BME280_pressure;Samples;Min_cycle;Max_cycle;Signal;HPM_P1;HPM_P2
2022/02/25 00:01:40;;;;;;;8.50;3.30;;;;;;;4.47;81.74;101535.03;5033251;28;20072;-45
2022/02/25 00:04:08;;;;;;;8.75;3.28;;;;;;;4.46;81.11;101543.34;5014831;28;20053;-47
2022/02/25 00:06:36;;;;;;;6.97;3.00;;;;;;;4.43;81.14;101541.06;5014397;28;20050;-46
2022/02/25 00:09:05;;;;;;;7.78;3.22;;;;;;;4.39;81.24;101531.72;5015396;28;20046;-45
2022/02/25 00:11:33;;;;;;;9.90;3.42;;;;;;;4.38;81.49;101546.28;5013980;28;20440;-45
2022/02/25 00:14:01;;;;;;;7.65;3.28;;;;;;;4.36;81.24;101543.78;5014601;28;20053;-45
2022/02/25 00:16:31;;;;;;;10.27;3.70;;;;;;;4.37;81.32;101545.41;5014227;28;20058;-47
2022/02/25 00:18:59;;;;;;;7.18;3.33;;;;;;;4.34;81.58;101555.81;5014201;28;20390;-48
2022/02/25 00:21:27;;;;;;;9.60;3.42;;;;;;;4.38;81.61;101559.75;5013030;28;20485;-48
2022/02/25 00:23:54;;;;;;;7.78;3.10;;;;;;;4.39;80.72;101558.72;5012722;28;20070;-46
2022/02/25 00:26:22;;;;;;;8.48;3.20;;;;;;;4.27;81.28;101567.41;5013912;28;20048;-45
2022/02/25 00:28:50;;;;;;;7.50;3.15;;;;;;;4.26;81.57;101568.47;5026255;28;20038;-44
2022/02/25 00:31:18;;;;;;;10.55;3.58;;;;;;;4.29;81.90;101564.53;5014059;28;20050;-46
2022/02/25 00:33:48;;;;;;;9.27;3.40;;;;;;;4.27;81.40;101575.50;5013880;28;20038;-45
2022/02/25 00:36:16;;;;;;;7.03;3.30;;;;;;;4.30;81.53;101570.75;5013604;28;20534;-46
2022/02/25 00:38:43;;;;;;;9.82;3.53;;;;;;;4.29;81.45;101574.50;5030472;28;20045;-44
2022/02/25 00:41:11;;;;;;;9.27;3.47;;;;;;;4.27;82.04;101578.22;5015953;28;20049;-47
2022/02/25 00:43:39;;;;;;;11.23;3.70;;;;;;;4.29;82.04;101587.97;5013716;28;20138;-46
2022/02/25 00:46:06;;;;;;;10.52;3.95;;;;;;;4.28;81.85;101579.03;5013404;28;20069;-47
2022/02/25 00:48:34;;;;;;;11.57;4.10;;;;;;;4.30;82.01;101584.22;5020528;28;20046;-46
2022/02/25 00:51:02;;;;;;;11.18;4.05;;;;;;;4.31;81.52;101583.22;5013508;28;20044;-46
2022/02/25 00:53:29;;;;;;;8.30;3.60;;;;;;;4.37;81.27;101587.75;5013143;28;20492;-44
2022/02/25 00:55:57;;;;;;;10.70;3.45;;;;;;;4.38;81.53;101584.88;5013977;28;20041;-45
2022/02/25 00:58:25;;;;;;;8.13;3.40;;;;;;;4.38;81.32;101592.13;5029008;28;20495;-45
2022/02/25 01:00:52;;;;;;;8.73;3.50;;;;;;;4.37;81.14;101595.84;5015319;28;20041;-45
2022/02/25 01:03:20;;;;;;;8.40;3.25;;;;;;;4.38;80.91;101597.53;5033204;28;20038;-44
2022/02/25 01:05:48;;;;;;;7.55;2.85;;;;;;;4.39;80.88;101599.19;5022261;28;20046;-47
2022/02/25 01:08:16;;;;;;;9.32;3.65;;;;;;;4.42;80.85;101601.44;5013354;28;20138;-45
2022/02/25 01:10:43;;;;;;;6.13;2.80;;;;;;;4.40;81.10;101587.34;5013681;28;20056;-45
2022/02/25 01:13:11;;;;;;;9.02;3.22;;;;;;;4.40;80.92;101598.13;5013522;28;20048;-46
2022/02/25 01:15:39;;;;;;;7.72;3.25;;;;;;;4.38;80.70;101602.94;5017757;28;20448;-46
2022/02/25 01:18:07;;;;;;;9.70;3.60;;;;;;;4.37;80.78;101602.06;5031869;28;20054;-46
2022/02/25 01:20:37;;;;;;;7.63;2.95;;;;;;;4.37;80.95;101598.53;5031930;28;20048;-47
2022/02/25 01:23:05;;;;;;;10.75;3.65;;;;;;;4.37;81.17;101596.69;5034322;28;20049;-46
2022/02/25 01:25:33;;;;;;;10.80;3.50;;;;;;;4.42;81.33;101596.06;5037020;28;20045;-46
2022/02/25 01:28:00;;;;;;;8.35;3.15;;;;;;;4.37;80.39;101587.75;5035162;28;20044;-43
2022/02/25 01:30:28;;;;;;;9.55;3.33;;;;;;;4.36;80.67;101591.50;5035135;28;20529;-44
2022/02/25 01:32:56;;;;;;;8.73;3.58;;;;;;;4.38;79.89;101586.72;5037153;28;20049;-45
2022/02/25 01:35:25;;;;;;;9.15;3.70;;;;;;;4.35;80.21;101589.81;5031359;28;20049;-44
2022/02/25 01:37:54;;;;;;;9.70;3.17;;;;;;;4.32;80.29;101587.56;5017248;28;20053;-46
2022/02/25 01:40:31;;;;;;;8.13;3.08;;;;;;;4.35;80.17;101590.66;5022386;28;20054;-42
2022/02/25 01:42:59;;;;;;;9.63;3.17;;;;;;;4.37;80.03;101580.50;5036444;28;20050;-45
2022/02/25 01:45:27;;;;;;;7.60;3.20;;;;;;;4.34;79.90;101580.91;5031841;28;20042;-46
2022/02/25 01:47:54;;;;;;;12.52;3.83;;;;;;;4.35;80.05;101587.13;5016834;28;20120;-44
2022/02/25 01:50:22;;;;;;;11.25;3.35;;;;;;;4.37;80.40;101577.78;5016730;28;20478;-43
2022/02/25 01:52:53;;;;;;;8.23;3.20;;;;;;;4.31;80.29;101578.63;5016920;28;20046;-46
2022/02/25 01:55:22;;;;;;;11.48;3.50;;;;;;;4.34;79.70;101580.09;5035192;28;20050;-45
2022/02/25 01:57:49;;;;;;;10.57;3.33;;;;;;;4.32;79.37;101585.69;5035881;28;20496;-46
2022/02/25 02:00:17;;;;;;;11.02;3.30;;;;;;;4.33;79.67;101592.75;5027299;28;20038;-45
2022/02/25 02:02:45;;;;;;;7.68;3.08;;;;;;;4.28;79.66;101589.81;5016527;28;20077;-45
2022/02/25 02:05:14;;;;;;;10.27;3.67;;;;;;;4.27;79.41;101596.25;5017535;28;20121;-46
2022/02/25 02:07:42;;;;;;;8.27;3.20;;;;;;;4.27;79.67;101593.56;5016830;28;20125;-44
2022/02/25 02:10:10;;;;;;;9.07;3.70;;;;;;;4.25;79.48;101591.06;5027919;28;20393;-49
2022/02/25 02:12:38;;;;;;;9.80;3.33;;;;;;;4.22;79.42;101585.28;5015439;28;20041;-46
2022/02/25 02:15:06;;;;;;;6.63;2.65;;;;;;;4.31;79.50;101591.31;5032927;28;20041;-47
2022/02/25 02:17:34;;;;;;;10.23;3.70;;;;;;;4.26;79.32;101592.75;5030933;28;20104;-45
2022/02/25 02:20:05;;;;;;;9.93;2.97;;;;;;;4.26;78.37;101594.63;5016196;28;20504;-47
2022/02/25 02:22:33;;;;;;;11.07;3.25;;;;;;;4.34;80.13;101590.88;5016056;28;20042;-48
2022/02/25 02:25:01;;;;;;;8.75;3.22;;;;;;;4.31;79.25;101596.69;5023835;28;20492;-47
2022/02/25 02:30:20;;;;;;;8.95;2.97;;;;;;;4.23;78.08;101587.78;5016060;28;20046;-44
2022/02/25 02:32:48;;;;;;;9.38;3.15;;;;;;;4.25;78.27;101585.66;5016099;28;20068;-45
2022/02/25 02:35:16;;;;;;;8.55;3.15;;;;;;;4.22;77.92;101593.38;5014980;28;20050;-42
2022/02/25 02:37:44;;;;;;;9.73;3.40;;;;;;;4.22;79.06;101596.88;5029341;28;20072;-41
2022/02/25 02:40:11;;;;;;;11.63;3.78;;;;;;;4.22;78.14;101588.78;5016265;28;20046;-43
2022/02/25 02:42:39;;;;;;;8.25;3.15;;;;;;;4.18;78.32;101605.59;5015457;28;20046;-43
2022/02/25 02:45:07;;;;;;;7.55;3.15;;;;;;;4.24;79.74;101594.81;5032897;28;20064;-42
2022/02/25 02:47:35;;;;;;;7.85;3.45;;;;;;;4.24;79.70;101594.81;5019904;28;20098;-44
2022/02/25 02:50:04;;;;;;;10.43;3.35;;;;;;;4.21;78.55;101597.94;5016261;28;20560;-44
2022/02/25 02:52:31;;;;;;;8.35;3.13;;;;;;;4.17;78.50;101598.56;5014544;28;20411;-46
2022/02/25 02:55:00;;;;;;;10.00;3.13;;;;;;;4.13;78.44;101598.13;5015996;28;20489;-44
2022/02/25 02:57:28;;;;;;;9.13;3.10;;;;;;;4.16;79.26;101595.03;5033505;28;20120;-47
2022/02/25 02:59:56;;;;;;;7.85;3.17;;;;;;;4.15;78.29;101600.63;5034239;28;20052;-44
2022/02/25 03:02:24;;;;;;;15.55;3.85;;;;;;;4.12;78.18;101595.66;5035406;28;20042;-44
2022/02/25 03:04:52;;;;;;;10.98;3.60;;;;;;;4.09;78.62;101596.03;5033978;28;20048;-46
2022/02/25 03:07:20;;;;;;;8.52;3.55;;;;;;;4.11;78.37;101600.19;5019823;28;20514;-45
2022/02/25 03:09:47;;;;;;;13.93;3.63;;;;;;;4.08;78.85;101595.22;5016645;28;20125;-44
2022/02/25 03:12:15;;;;;;;11.60;3.55;;;;;;;4.10;78.53;101590.44;5035013;28;20060;-45
2022/02/25 03:14:43;;;;;;;9.70;3.47;;;;;;;4.09;78.91;101586.09;5035116;28;20045;-44
2022/02/25 03:17:14;;;;;;;10.02;3.22;;;;;;;4.13;79.16;101581.94;5035200;28;20037;-45
2022/02/25 03:19:42;;;;;;;9.98;3.50;;;;;;;4.10;79.33;101590.44;5033112;28;20041;-47
2022/02/25 03:22:13;;;;;;;9.98;3.35;;;;;;;4.09;78.94;101591.50;5020752;28;20053;-46
2022/02/25 03:24:56;;;;;;;12.68;3.72;;;;;;;4.09;79.16;101588.81;5015273;28;20140;-45
2022/02/25 03:27:25;;;;;;;10.88;3.50;;;;;;;4.08;79.47;101589.81;5014664;28;20119;-45
2022/02/25 03:29:53;;;;;;;9.00;3.30;;;;;;;4.05;79.39;101587.53;5014923;28;20052;-45
2022/02/25 03:32:22;;;;;;;10.93;3.28;;;;;;;4.07;79.99;101584.66;5016088;28;20046;-47
2022/02/25 03:34:50;;;;;;;13.52;3.50;;;;;;;4.07;78.99;101592.75;5016012;28;20045;-46
2022/02/25 03:37:18;;;;;;;10.45;3.60;;;;;;;4.01;79.71;101595.19;5031216;28;20045;-45
2022/02/25 03:39:47;;;;;;;6.47;2.70;;;;;;;4.04;80.26;101588.56;5034494;28;20049;-44
2022/02/25 03:42:18;;;;;;;11.10;3.17;;;;;;;4.14;81.43;101591.69;5033529;28;20516;-46
2022/02/25 03:44:46;;;;;;;9.93;3.10;;;;;;;4.14;81.43;101602.50;5034212;28;20037;-46
2022/02/25 03:47:14;;;;;;;8.40;3.20;;;;;;;4.16;82.90;101592.34;5004707;28;20164;-47
2022/02/25 03:49:42;;;;;;;9.77;3.60;;;;;;;4.12;81.00;101596.47;5014870;28;20056;-46
2022/02/25 03:52:10;;;;;;;11.93;3.65;;;;;;;4.04;79.76;101600.19;5015650;28;20048;-46
2022/02/25 03:54:38;;;;;;;9.73;3.42;;;;;;;4.10;81.90;101609.31;5012877;28;20038;-44
2022/02/25 03:57:05;;;;;;;12.20;3.80;;;;;;;4.06;80.69;101608.06;5014432;28;20045;-45
2022/02/25 03:59:33;;;;;;;12.18;3.33;;;;;;;4.07;80.99;101612.44;5023347;28;20104;-44
2022/02/25 04:02:00;;;;;;;9.70;3.83;;;;;;;4.04;80.98;101608.28;5013250;28;20048;-45
2022/02/25 04:04:28;;;;;;;11.23;3.25;;;;;;;4.00;80.37;101608.91;5013044;28;20049;-44
2022/02/25 04:06:56;;;;;;;10.68;3.28;;;;;;;3.99;80.64;101607.22;5016033;28;20449;-45
2022/02/25 04:09:25;;;;;;;9.50;2.90;;;;;;;4.06;82.84;101597.28;5014187;28;20140;-45
2022/02/25 04:11:54;;;;;;;9.43;3.05;;;;;;;4.02;80.75;101606.84;5013215;28;20084;-45
2022/02/25 04:14:22;;;;;;;9.70;2.95;;;;;;;4.08;82.59;101606.00;5014181;28;20049;-45
2022/02/25 04:16:51;;;;;;;13.48;3.75;;;;;;;4.01;81.15;101613.25;5015455;28;20492;-45
2022/02/25 04:19:21;;;;;;;14.48;3.70;;;;;;;4.01;81.93;101610.56;5028175;28;20038;-46
2022/02/25 04:21:49;;;;;;;11.32;3.25;;;;;;;3.97;81.06;101609.28;5033729;28;20488;-45
2022/02/25 04:24:17;;;;;;;8.68;3.47;;;;;;;3.97;80.76;101596.66;5033111;28;20504;-45
2022/02/25 04:26:45;;;;;;;14.05;3.45;;;;;;;4.01;81.07;101599.75;5021220;28;20121;-48
2022/02/25 04:29:12;;;;;;;10.70;3.60;;;;;;;4.01;80.12;101597.06;5013961;28;20468;-48
2022/02/25 04:31:40;;;;;;;12.35;3.45;;;;;;;4.02;81.12;101593.34;5025936;28;20037;-46
2022/02/25 04:34:08;;;;;;;16.70;3.67;;;;;;;3.98;80.80;101586.69;5033531;28;20069;-45
2022/02/25 04:36:37;;;;;;;11.77;3.33;;;;;;;3.94;80.96;101590.84;5031732;28;20048;-42
2022/02/25 04:39:06;;;;;;;13.02;3.17;;;;;;;3.95;80.70;101587.94;5021222;28;20045;-47
2022/02/25 04:41:36;;;;;;;12.82;3.95;;;;;;;3.91;80.17;101600.16;5013471;28;20100;-45
2022/02/25 04:44:07;;;;;;;12.70;3.65;;;;;;;3.88;80.80;101605.16;5024806;28;20492;-46
2022/02/25 04:46:39;;;;;;;12.98;3.30;;;;;;;3.95;81.62;101611.38;5027920;28;20056;-46
2022/02/25 04:49:07;;;;;;;13.82;3.72;;;;;;;3.95;81.32;101611.38;5013660;28;20084;-46
2022/02/25 04:51:34;;;;;;;13.30;3.22;;;;;;;3.94;80.51;101607.00;5012362;28;20046;-48
2022/02/25 04:54:03;;;;;;;11.43;3.58;;;;;;;3.94;80.42;101615.09;5013828;28;20045;-47
2022/02/25 04:56:30;;;;;;;8.43;2.90;;;;;;;3.88;81.02;101615.94;5015295;28;20069;-48
2022/02/25 04:58:58;;;;;;;11.80;3.47;;;;;;;3.90;81.25;101617.38;5012732;28;20045;-44
2022/02/25 05:01:26;;;;;;;13.38;3.80;;;;;;;3.96;81.31;101618.44;5013545;28;20042;-47
2022/02/25 05:03:54;;;;;;;10.40;3.80;;;;;;;3.94;81.45;101620.50;5025371;28;20125;-46
2022/02/25 05:06:21;;;;;;;10.95;3.55;;;;;;;3.97;81.97;101620.06;5031891;28;20033;-45
2022/02/25 05:08:49;;;;;;;13.80;3.95;;;;;;;3.86;81.00;101616.13;5024687;28;20042;-47
2022/02/25 05:11:17;;;;;;;16.77;4.93;;;;;;;3.74;81.09;101623.97;5013232;28;20520;-44
2022/02/25 05:13:44;;;;;;;14.80;4.13;;;;;;;3.72;81.51;101631.44;5013380;28;20129;-46
2022/02/25 05:21:45;;;;;;;13.68;3.90;;;;;;;3.76;81.46;101630.00;5031386;28;20053;-45
2022/02/25 05:24:15;;;;;;;13.00;3.60;;;;;;;3.75;81.30;101622.09;5032537;28;20530;-46
2022/02/25 05:26:43;;;;;;;20.10;3.72;;;;;;;3.74;81.08;101621.28;5015862;28;20088;-43
2022/02/25 05:29:11;;;;;;;13.57;4.03;;;;;;;3.76;81.18;101621.91;5013300;28;20053;-49
2022/02/25 05:31:39;;;;;;;10.30;3.70;;;;;;;3.77;81.06;101618.16;5013068;28;20081;-46
2022/02/25 05:34:07;;;;;;;17.33;4.60;;;;;;;3.78;81.52;101617.16;5023660;28;20046;-45
2022/02/25 05:36:34;;;;;;;14.73;4.00;;;;;;;3.80;81.10;101614.22;5024533;28;20061;-46
2022/02/25 05:39:04;;;;;;;16.63;4.72;;;;;;;3.82;81.13;101609.47;5032698;28;20060;-48
2022/02/25 05:41:31;;;;;;;10.38;3.63;;;;;;;3.79;80.94;101624.19;5032878;28;20132;-46
2022/02/25 05:44:00;;;;;;;11.32;3.40;;;;;;;3.83;81.17;101624.63;5032850;28;20488;-44
2022/02/25 05:46:28;;;;;;;15.02;4.30;;;;;;;3.91;82.08;101626.31;5030716;28;20049;-44
2022/02/25 05:48:56;;;;;;;12.07;4.20;;;;;;;3.91;81.76;101632.53;5019731;28;20046;-46
2022/02/25 05:51:23;;;;;;;13.13;3.80;;;;;;;3.93;81.42;101624.25;5013072;28;20378;-46
2022/02/25 05:53:53;;;;;;;13.65;3.72;;;;;;;3.96;81.23;101629.22;5012643;28;20489;-43
2022/02/25 05:56:21;;;;;;;11.32;3.97;;;;;;;3.92;81.09;101626.09;5012885;28;20129;-45
2022/02/25 05:58:49;;;;;;;15.55;4.28;;;;;;;3.90;81.41;101620.09;5014230;28;20488;-46
2022/02/25 06:01:17;;;;;;;10.50;3.58;;;;;;;4.02;81.81;101628.41;5023920;28;20049;-45
2022/02/25 06:03:45;;;;;;;14.70;3.80;;;;;;;4.25;84.82;101634.22;5032061;28;20125;-44
2022/02/25 06:06:12;;;;;;;13.57;3.85;;;;;;;4.17;83.08;101630.91;5032733;28;20069;-48
2022/02/25 06:08:40;;;;;;;7.38;2.45;;;;;;;4.30;88.25;101630.09;5032852;28;20128;-44
2022/02/25 06:11:08;;;;;;;10.07;2.88;;;;;;;4.46;87.21;101637.78;5027124;28;20056;-44
2022/02/25 06:13:35;;;;;;;13.02;3.85;;;;;;;4.34;83.66;101640.25;5025038;28;20068;-44
2022/02/25 06:16:04;;;;;;;11.15;3.10;;;;;;;4.29;82.41;101650.03;4328964;28;10000764;-45
2022/02/25 06:18:33;;;;;;;10.98;3.45;;;;;;;4.14;82.35;101640.25;5032588;28;20574;-47
2022/02/25 06:21:01;;;;;;;13.25;3.72;;;;;;;4.13;83.99;101645.84;5027490;28;20049;-45
2022/02/25 06:23:29;;;;;;;12.90;3.67;;;;;;;4.37;84.09;101647.13;5032579;28;20567;-42
2022/02/25 06:25:58;;;;;;;13.10;3.92;;;;;;;4.31;84.12;101647.94;5029422;28;20128;-45
2022/02/25 06:28:26;;;;;;;14.90;4.20;;;;;;;4.18;83.26;101659.53;5032252;28;20041;-45
2022/02/25 06:30:55;;;;;;;15.02;4.40;;;;;;;4.34;85.18;101658.31;5020083;28;20053;-45
2022/02/25 06:33:22;;;;;;;15.70;4.10;;;;;;;4.49;85.20;101661.66;5012487;28;20057;-46
2022/02/25 06:35:50;;;;;;;13.35;4.18;;;;;;;4.22;84.60;101667.00;5012475;28;20052;-45
2022/02/25 06:38:18;;;;;;;14.70;3.80;;;;;;;4.19;86.19;101661.22;5022918;28;20041;-46
2022/02/25 06:40:45;;;;;;;15.32;4.47;;;;;;;4.18;85.90;101670.31;5031455;28;20061;-41
2022/02/25 06:43:13;;;;;;;17.83;4.35;;;;;;;4.00;86.34;101671.75;5031957;28;20061;-45
2022/02/25 06:45:41;;;;;;;13.85;4.88;;;;;;;3.93;87.33;101688.94;5032194;28;20037;-46
2022/02/25 06:48:08;;;;;;;14.73;4.70;;;;;;;3.93;87.58;101689.75;5032211;28;20041;-45
2022/02/25 06:50:36;;;;;;;12.77;3.85;;;;;;;3.95;87.93;101690.41;5020083;28;20049;-44
2022/02/25 06:53:04;;;;;;;16.70;4.30;;;;;;;3.97;88.15;101682.94;5011913;28;20252;-46
2022/02/25 06:55:31;;;;;;;14.55;3.92;;;;;;;3.99;88.38;101688.13;5011021;28;20042;-47
2022/02/25 06:58:03;;;;;;;16.70;4.35;;;;;;;3.90;88.37;101689.34;5022494;28;20053;-47
2022/02/25 07:00:33;;;;;;;15.20;4.20;;;;;;;3.80;89.85;101695.94;5027449;28;20492;-46
2022/02/25 07:03:00;;;;;;;17.70;4.75;;;;;;;3.79;89.93;101696.97;5012038;28;20046;-42
2022/02/25 07:05:29;;;;;;;17.00;5.05;;;;;;;3.79;89.64;101705.06;5010719;28;20439;-46
2022/02/25 07:07:57;;;;;;;13.93;4.28;;;;;;;3.78;90.22;101703.41;5013150;28;20500;-47
2022/02/25 07:10:30;;;;;;;13.57;4.32;;;;;;;3.81;90.25;101715.66;5011873;28;20539;-46
2022/02/25 07:12:58;;;;;;;12.75;3.97;;;;;;;3.80;90.49;101706.72;5010918;28;20464;-44
2022/02/25 07:15:26;;;;;;;13.25;4.32;;;;;;;3.87;89.98;101714.00;5011589;28;20046;-46
2022/02/25 07:17:54;;;;;;;14.57;4.40;;;;;;;3.88;90.41;101711.13;5011589;28;20046;-43
2022/02/25 07:20:22;;;;;;;17.50;4.85;;;;;;;3.82;90.47;101720.84;5027830;28;20055;-44
2022/02/25 07:22:51;;;;;;;17.63;4.70;;;;;;;3.78;91.32;101735.75;5030113;28;20051;-47
2022/02/25 07:25:19;;;;;;;15.55;4.57;;;;;;;3.78;91.51;101721.44;5031518;28;20122;-46
2022/02/25 07:27:47;;;;;;;16.17;4.78;;;;;;;3.79;91.92;101731.19;5029714;28;20041;-47
2022/02/25 07:30:15;;;;;;;21.88;5.18;;;;;;;3.82;92.41;101731.63;5016161;28;20068;-45
2022/02/25 07:32:43;;;;;;;18.35;5.22;;;;;;;3.82;91.98;101731.63;5010629;28;20105;-47
2022/02/25 07:35:11;;;;;;;20.52;5.15;;;;;;;3.80;92.83;101730.13;5010581;28;20038;-43
2022/02/25 07:37:40;;;;;;;16.48;5.22;;;;;;;3.84;92.55;101734.09;5010518;28;20054;-45
2022/02/25 07:40:10;;;;;;;15.73;4.63;;;;;;;3.91;91.96;101734.97;5012696;28;20038;-46
2022/02/25 07:42:38;;;;;;;19.75;5.05;;;;;;;3.97;92.37;101744.09;5010301;28;20101;-47
2022/02/25 07:45:06;;;;;;;15.88;4.80;;;;;;;4.06;92.53;101748.28;5010470;28;20048;-45
2022/02/25 07:47:34;;;;;;;17.90;4.68;;;;;;;4.06;91.76;101748.28;5010344;28;20046;-46
2022/02/25 07:50:02;;;;;;;19.13;4.80;;;;;;;4.03;91.99;101752.22;5010249;28;20152;-45
2022/02/25 07:52:31;;;;;;;15.02;4.72;;;;;;;4.05;92.26;101757.44;5012127;28;20130;-46
2022/02/25 07:54:58;;;;;;;19.25;4.97;;;;;;;4.02;92.62;101757.84;5014241;28;20157;-44
2022/02/25 07:57:26;;;;;;;17.65;5.38;;;;;;;4.08;92.66;101769.66;5020213;28;20046;-47
2022/02/25 08:00:15;;;;;;;22.02;4.32;;;;;;;4.17;92.55;101765.78;5014397;28;20409;-46
2022/02/25 08:02:44;;;;;;;18.67;5.13;;;;;;;4.19;92.80;101783.41;5025262;28;20053;-46
2022/02/25 08:05:12;;;;;;;14.50;4.70;;;;;;;4.23;93.14;101790.09;5031313;28;20460;-45
2022/02/25 08:07:40;;;;;;;14.82;4.53;;;;;;;4.25;92.80;101801.47;5033822;28;20419;-45
2022/02/25 08:10:08;;;;;;;20.02;5.45;;;;;;;4.29;93.27;101801.09;5033296;28;20037;-44
2022/02/25 08:12:39;;;;;;;16.20;5.15;;;;;;;4.34;93.27;101809.41;5032793;28;20051;-46
2022/02/25 08:15:09;;;;;;;19.00;4.63;;;;;;;4.32;92.89;101806.91;5031015;28;20034;-45
2022/02/25 08:17:37;;;;;;;17.90;5.03;;;;;;;4.37;93.31;101809.81;5026492;28;20100;-45
2022/02/25 08:20:06;;;;;;;16.92;5.03;;;;;;;4.40;93.30;101811.28;5013787;28;20501;-46
2022/02/25 08:22:34;;;;;;;18.67;5.15;;;;;;;4.47;93.45;101812.13;5013955;28;20540;-46
2022/02/25 08:25:02;;;;;;;14.57;4.78;;;;;;;4.46;93.17;101816.69;5013996;28;20038;-46
2022/02/25 08:27:34;;;;;;;21.35;4.95;;;;;;;4.47;93.63;101820.22;5030763;28;20059;-46
2022/02/25 08:30:04;;;;;;;14.15;4.78;;;;;;;4.49;94.28;101823.56;5022974;28;20050;-46
2022/02/25 08:32:34;;;;;;;15.82;5.00;;;;;;;4.54;94.35;101825.66;5017592;28;20034;-46
2022/02/25 08:35:02;;;;;;;18.65;4.90;;;;;;;4.57;94.14;101826.09;5013919;28;20386;-43
2022/02/25 08:37:30;;;;;;;20.52;5.10;;;;;;;4.62;94.09;101837.09;5031807;28;20042;-45
2022/02/25 08:39:58;;;;;;;18.65;5.25;;;;;;;4.63;94.67;101840.63;5033102;28;20041;-44
2022/02/25 08:42:26;;;;;;;18.05;5.20;;;;;;;4.64;94.86;101845.84;5031116;28;20049;-44
2022/02/25 08:44:53;;;;;;;21.15;5.18;;;;;;;4.67;94.57;101848.13;5011861;28;20065;-44
2022/02/25 08:47:23;;;;;;;17.30;5.20;;;;;;;4.68;94.28;101847.06;5012244;28;20556;-46
2022/02/25 08:49:51;;;;;;;24.58;5.63;;;;;;;4.72;94.55;101849.38;5012320;28;20046;-45
2022/02/25 08:52:18;;;;;;;20.17;4.75;;;;;;;4.74;94.12;101858.09;5014558;28;20408;-45
2022/02/25 08:54:46;;;;;;;20.08;5.22;;;;;;;4.80;93.80;101862.69;5021945;28;20042;-46
2022/02/25 08:57:14;;;;;;;20.33;5.22;;;;;;;4.85;94.03;101874.53;5032080;28;20042;-46
2022/02/25 08:59:42;;;;;;;17.88;4.55;;;;;;;4.95;93.19;101876.84;5033031;28;20042;-46
2022/02/25 09:02:10;;;;;;;17.73;4.85;;;;;;;5.00;92.72;101868.94;5025472;28;20045;-47
2022/02/25 09:04:40;;;;;;;20.52;5.20;;;;;;;5.08;92.96;101881.44;5025646;28;20092;-46
2022/02/25 09:07:10;;;;;;;17.60;4.68;;;;;;;5.12;91.29;101883.53;5024081;28;20046;-46
2022/02/25 09:09:40;;;;;;;22.25;5.70;;;;;;;5.18;91.70;101891.84;5033075;28;20124;-46
2022/02/25 09:12:10;;;;;;;15.80;5.68;;;;;;;5.21;91.15;101891.44;5031969;28;20041;-48
2022/02/25 09:14:37;;;;;;;25.83;5.72;;;;;;;5.23;90.30;101895.59;4334445;28;10020744;-45
2022/02/25 09:17:07;;;;;;;22.00;5.82;;;;;;;5.23;90.00;101895.59;5013081;28;20052;-47
2022/02/25 09:19:34;;;;;;;22.63;6.93;;;;;;;5.22;89.09;101904.75;5023640;28;20046;-47
2022/02/25 09:22:04;;;;;;;19.10;5.78;;;;;;;5.25;88.57;101901.63;5022966;28;20045;-45
2022/02/25 09:24:33;;;;;;;20.35;5.72;;;;;;;5.38;88.65;101898.09;5026950;28;20038;-45
2022/02/25 09:27:01;;;;;;;19.92;4.95;;;;;;;5.45;87.01;101890.81;5030663;28;20465;-44
2022/02/25 09:29:29;;;;;;;22.02;6.15;;;;;;;5.47;86.96;101898.75;5019969;28;20053;-45
2022/02/25 09:31:57;;;;;;;21.42;5.72;;;;;;;5.50;86.59;101907.25;5028443;28;20045;-41
2022/02/25 09:34:24;;;;;;;23.67;5.53;;;;;;;5.54;85.63;101913.91;5032713;28;20119;-46
2022/02/25 09:36:52;;;;;;;16.98;4.50;;;;;;;5.60;85.29;101916.81;5014868;28;20488;-46
2022/02/25 09:39:20;;;;;;;17.27;5.20;;;;;;;5.64;84.47;101918.91;5013269;28;20046;-45
2022/02/25 09:41:48;;;;;;;21.73;5.50;;;;;;;5.70;84.03;101917.22;5013628;28;20468;-47
2022/02/25 09:44:17;;;;;;;14.60;4.72;;;;;;;5.75;83.76;101933.69;5029459;28;20067;-45
2022/02/25 09:46:45;;;;;;;19.90;4.60;;;;;;;5.72;84.58;101920.56;5036612;28;20057;-46
2022/02/25 09:49:13;;;;;;;18.90;4.90;;;;;;;5.70;84.43;101928.03;5035356;28;20055;-46
2022/02/25 09:51:42;;;;;;;18.27;4.45;;;;;;;5.66;84.71;101933.06;5015449;28;20428;-46
2022/02/25 09:54:13;;;;;;;24.23;5.63;;;;;;;5.66;84.73;101948.44;5017318;28;20050;-46
2022/02/25 09:56:41;;;;;;;26.30;5.70;;;;;;;5.66;84.86;101941.16;5015401;28;20042;-45
2022/02/25 09:59:09;;;;;;;18.70;5.25;;;;;;;5.67;85.32;101955.50;5006731;28;20103;-48
2022/02/25 10:01:37;;;;;;;20.88;4.78;;;;;;;5.69;85.19;101965.06;5035881;28;20081;-45
2022/02/25 10:04:22;;;;;;;20.17;5.38;;;;;;;5.77;84.75;101961.31;5016339;28;20125;-48
2022/02/25 10:06:50;;;;;;;22.93;5.93;;;;;;;5.80;84.77;101960.94;5017762;28;20049;-46
2022/02/25 10:09:36;;;;;;;23.33;5.30;;;;;;;5.82;84.48;101974.22;5016254;28;20133;-48
2022/02/25 10:12:11;;;;;;;;;;;;;;;5.80;84.26;101974.47;5017139;28;20559;-46
2022/02/25 10:14:42;;;;;;;19.60;4.45;;;;;;;5.82;84.54;101983.19;5015302;28;19921;-48
2022/02/25 10:17:15;;;;;;;20.17;4.55;;;;;;;5.87;85.36;101969.88;5016271;28;20128;-46
2022/02/25 10:19:48;;;;;;;24.13;5.30;;;;;;;5.92;84.97;101989.00;5030942;28;20099;-47
2022/02/25 10:22:28;;;;;;;16.50;4.60;;;;;;;5.95;84.00;101963.44;5036002;28;20048;-46
2022/02/25 10:24:58;;;;;;;25.02;4.78;;;;;;;5.94;83.63;101978.00;5034532;28;20056;-46
2022/02/25 10:27:32;;;;;;;23.00;5.63;;;;;;;5.95;83.02;101979.69;5036008;28;20042;-48
2022/02/25 10:30:01;;;;;;;16.30;4.45;;;;;;;6.02;83.14;101985.09;5035677;28;20042;-46
2022/02/25 10:32:50;;;;;;;14.50;4.85;;;;;;;6.07;82.11;102006.94;5034085;28;20049;-47
2022/02/25 10:35:26;;;;;;;15.63;4.20;;;;;;;6.10;81.72;102003.81;5035794;28;20056;-48
2022/02/25 10:38:15;;;;;;;18.45;4.78;;;;;;;6.18;81.63;102014.41;5034787;28;20055;-48
2022/02/25 10:40:48;;;;;;;23.30;5.60;;;;;;;6.14;81.79;102014.00;5036128;28;20045;-47
2022/02/25 10:43:18;;;;;;;16.10;4.50;;;;;;;6.15;82.26;102028.38;5033718;28;20050;-46
2022/02/25 10:45:52;;;;;;;22.17;4.68;;;;;;;6.15;82.59;102018.38;5035457;28;20081;-44
2022/02/25 10:48:22;;;;;;;20.67;4.95;;;;;;;6.11;83.81;102033.38;5035253;28;20041;-48
2022/02/25 10:51:01;;;;;;;19.23;4.88;;;;;;;6.05;84.79;102044.19;5035421;28;20140;-48
2022/02/25 10:53:33;;;;;;;18.92;4.32;;;;;;;5.98;85.38;102039.59;5035184;28;20391;-48
2022/02/25 10:56:06;;;;;;;15.40;5.07;;;;;;;5.94;86.11;102049.19;5032113;28;20124;-48
2022/02/25 10:58:38;;;;;;;17.05;4.82;;;;;;;5.94;85.24;102046.47;5035495;28;20072;-48
2022/02/25 11:01:15;;;;;;;22.92;4.63;;;;;;;5.88;84.34;102060.78;5035321;28;20065;-45
2022/02/25 11:04:02;;;;;;;19.63;4.68;;;;;;;5.84;85.54;102059.53;5033794;28;20046;-46
2022/02/25 11:06:30;;;;;;;18.67;4.93;;;;;;;5.85;87.43;102072.03;5035149;28;20068;-48
2022/02/25 11:08:59;;;;;;;15.82;4.85;;;;;;;5.88;88.14;102059.97;5020272;28;20432;-48
2022/02/25 11:11:27;;;;;;;15.85;4.60;;;;;;;5.95;89.73;102058.97;5015484;28;20136;-45
2022/02/25 11:13:55;;;;;;;19.55;4.68;;;;;;;6.02;88.89;102066.25;5014087;28;20046;-48
2022/02/25 11:16:24;;;;;;;19.77;4.57;;;;;;;6.08;88.75;102060.00;5014106;28;20045;-47
2022/02/25 11:19:12;;;;;;;21.77;4.75;;;;;;;6.18;88.70;102055.00;5013866;28;20073;-46
2022/02/25 11:21:39;;;;;;;26.25;9.20;;;;;;;6.28;87.41;102051.91;5015925;28;20125;-46
2022/02/25 11:24:07;;;;;;;16.58;4.75;;;;;;;6.36;87.34;102068.75;5033264;28;20124;-45
2022/02/25 11:26:35;;;;;;;18.58;5.00;;;;;;;6.42;86.04;102077.06;5033756;28;20183;-49
2022/02/25 11:29:06;;;;;;;18.30;4.85;;;;;;;6.44;85.65;102066.88;5034596;28;20073;-45
2022/02/25 11:31:36;;;;;;;19.50;4.55;;;;;;;6.50;85.28;102066.03;5033084;28;20088;-47
2022/02/25 11:34:07;;;;;;;25.70;5.65;;;;;;;6.52;84.92;102066.66;5021035;28;20117;-45
2022/02/25 11:36:40;;;;;;;22.90;6.20;;;;;;;6.54;82.97;102075.38;5013600;28;20068;-45
2022/02/25 11:39:26;;;;;;;22.10;5.28;;;;;;;6.57;84.02;102061.44;5015075;28;20056;-45
2022/02/25 11:42:02;;;;;;;21.55;5.20;;;;;;;6.63;82.93;102057.88;5014719;28;20142;-46
2022/02/25 11:44:31;;;;;;;19.63;4.80;;;;;;;6.64;83.12;102048.72;5017272;28;20041;-45